sensor_id;sensor_type;location;lat;lon;timestamp;P1;durP1;ratioP1;P2;durP2;ratioP2
33840;SDS011;20142;28.494;-16.312;2023-09-19T00:01:13;12.85;;;1.90;;
33840;SDS011;20142;28.494;-16.312;2023-09-19T00:06:15;11.05;;;1.90;;
33840;SDS011;20142;28.494;-16.312;2023-09-19T00:11:17;10.18;;;1.80;;
33840;SDS011;20142;28.494;-16.312;2023-09-19T00:16:19;11.20;;;2.08;;
33840;SDS011;20142;28.494;-16.312;2023-09-19T00:21:21;9.85;;;1.60;;
33840;SDS011;20142;28.494;-16.312;2023-09-19T00:26:23;8.98;;;1.85;;
33840;SDS011;20142;28.494;-16.312;2023-09-19T00:31:25;8.95;;;1.58;;
33840;SDS011;20142;28.494;-16.312;2023-09-19T00:36:26;9.18;;;1.40;;
33840;SDS011;20142;28.494;-16.312;2023-09-19T00:41:29;8.35;;;1.33;;
33840;SDS011;20142;28.494;-16.312;2023-09-19T00:46:32;7.63;;;1.15;;
33840;SDS011;20142;28.494;-16.312;2023-09-19T00:51:34;10.13;;;1.60;;
33840;SDS011;20142;28.494;-16.312;2023-09-19T00:56:36;5.13;;;1.20;;
33840;SDS011;20142;28.494;-16.312;2023-09-19T01:01:41;11.85;;;1.42;;
33840;SDS011;20142;28.494;-16.312;2023-09-19T01:06:43;7.70;;;1.55;;
33840;SDS011;20142;28.494;-16.312;2023-09-19T01:11:47;6.35;;;1.40;;
33840;SDS011;20142;28.494;-16.312;2023-09-19T01:17:03;6.85;;;1.33;;
33840;SDS011;20142;28.494;-16.312;2023-09-19T01:28:31;6.03;;;1.30;;
33840;SDS011;20142;28.494;-16.312;2023-09-19T01:34:16;6.45;;;1.30;;
33840;SDS011;20142;28.494;-16.312;2023-09-19T01:39:11;7.47;;;1.35;;
33840;SDS011;20142;28.494;-16.312;2023-09-19T01:44:17;9.45;;;1.60;;
33840;SDS011;20142;28.494;-16.312;2023-09-19T01:49:50;12.63;;;1.60;;
33840;SDS011;20142;28.494;-16.312;2023-09-19T01:55:06;13.15;;;2.17;;
33840;SDS011;20142;28.494;-16.312;2023-09-19T02:00:11;11.57;;;1.67;;
33840;SDS011;20142;28.494;-16.312;2023-09-19T02:05:21;7.72;;;1.58;;
33840;SDS011;20142;28.494;-16.312;2023-09-19T02:10:25;7.43;;;1.80;;
33840;SDS011;20142;28.494;-16.312;2023-09-19T02:15:26;7.85;;;1.60;;
33840;SDS011;20142;28.494;-16.312;2023-09-19T02:25:39;7.40;;;1.60;;
33840;SDS011;20142;28.494;-16.312;2023-09-19T02:30:41;7.03;;;1.90;;
33840;SDS011;20142;28.494;-16.312;2023-09-19T02:35:43;6.35;;;1.50;;
33840;SDS011;20142;28.494;-16.312;2023-09-19T02:40:45;8.73;;;1.40;;
33840;SDS011;20142;28.494;-16.312;2023-09-19T02:45:47;7.13;;;1.63;;
33840;SDS011;20142;28.494;-16.312;2023-09-19T02:50:54;8.88;;;1.80;;
33840;SDS011;20142;28.494;-16.312;2023-09-19T02:55:56;10.27;;;1.50;;
33840;SDS011;20142;28.494;-16.312;2023-09-19T03:00:57;8.98;;;1.45;;
33840;SDS011;20142;28.494;-16.312;2023-09-19T03:05:59;8.75;;;1.58;;
33840;SDS011;20142;28.494;-16.312;2023-09-19T03:11:07;7.18;;;1.50;;
33840;SDS011;20142;28.494;-16.312;2023-09-19T03:16:11;6.35;;;1.40;;
33840;SDS011;20142;28.494;-16.312;2023-09-19T03:21:16;11.65;;;2.00;;
33840;SDS011;20142;28.494;-16.312;2023-09-19T03:26:17;8.02;;;1.75;;
33840;SDS011;20142;28.494;-16.312;2023-09-19T03:31:20;9.02;;;1.83;;
33840;SDS011;20142;28.494;-16.312;2023-09-19T03:36:21;7.95;;;2.00;;
33840;SDS011;20142;28.494;-16.312;2023-09-19T03:41:23;7.88;;;1.92;;
33840;SDS011;20142;28.494;-16.312;2023-09-19T03:46:25;8.75;;;1.95;;
33840;SDS011;20142;28.494;-16.312;2023-09-19T03:51:27;11.07;;;2.42;;
33840;SDS011;20142;28.494;-16.312;2023-09-19T03:56:29;12.50;;;2.17;;
33840;SDS011;20142;28.494;-16.312;2023-09-19T04:01:31;12.18;;;2.20;;
33840;SDS011;20142;28.494;-16.312;2023-09-19T04:06:34;10.35;;;2.05;;
33840;SDS011;20142;28.494;-16.312;2023-09-19T04:11:36;16.08;;;2.90;;
33840;SDS011;20142;28.494;-16.312;2023-09-19T04:16:38;15.48;;;2.40;;
33840;SDS011;20142;28.494;-16.312;2023-09-19T04:21:40;12.93;;;2.30;;
33840;SDS011;20142;28.494;-16.312;2023-09-19T04:26:41;12.27;;;2.95;;
33840;SDS011;20142;28.494;-16.312;2023-09-19T04:31:43;13.00;;;2.75;;
33840;SDS011;20142;28.494;-16.312;2023-09-19T04:36:46;12.20;;;2.67;;
33840;SDS011;20142;28.494;-16.312;2023-09-19T04:41:48;12.18;;;2.40;;
33840;SDS011;20142;28.494;-16.312;2023-09-19T04:46:50;10.23;;;2.15;;
33840;SDS011;20142;28.494;-16.312;2023-09-19T04:51:51;13.50;;;2.42;;
33840;SDS011;20142;28.494;-16.312;2023-09-19T04:56:54;16.40;;;2.78;;
33840;SDS011;20142;28.494;-16.312;2023-09-19T05:01:56;11.70;;;2.42;;
33840;SDS011;20142;28.494;-16.312;2023-09-19T05:06:57;8.18;;;2.40;;
33840;SDS011;20142;28.494;-16.312;2023-09-19T05:11:59;10.48;;;1.88;;
33840;SDS011;20142;28.494;-16.312;2023-09-19T05:17:01;12.45;;;2.30;;
33840;SDS011;20142;28.494;-16.312;2023-09-19T05:22:04;9.85;;;2.10;;
33840;SDS011;20142;28.494;-16.312;2023-09-19T05:27:07;12.98;;;2.38;;
33840;SDS011;20142;28.494;-16.312;2023-09-19T05:32:09;10.43;;;2.03;;
33840;SDS011;20142;28.494;-16.312;2023-09-19T05:37:12;9.10;;;2.08;;
33840;SDS011;20142;28.494;-16.312;2023-09-19T05:42:16;10.40;;;2.28;;
33840;SDS011;20142;28.494;-16.312;2023-09-19T05:47:18;10.55;;;1.92;;
33840;SDS011;20142;28.494;-16.312;2023-09-19T05:52:21;13.57;;;2.30;;
33840;SDS011;20142;28.494;-16.312;2023-09-19T05:57:23;15.77;;;2.10;;
33840;SDS011;20142;28.494;-16.312;2023-09-19T06:02:25;13.10;;;2.30;;
33840;SDS011;20142;28.494;-16.312;2023-09-19T06:07:29;14.05;;;2.05;;
33840;SDS011;20142;28.494;-16.312;2023-09-19T06:12:40;10.25;;;1.98;;
33840;SDS011;20142;28.494;-16.312;2023-09-19T06:22:56;10.05;;;2.30;;
33840;SDS011;20142;28.494;-16.312;2023-09-19T06:27:58;9.18;;;2.05;;
33840;SDS011;20142;28.494;-16.312;2023-09-19T06:32:59;11.32;;;2.13;;
33840;SDS011;20142;28.494;-16.312;2023-09-19T06:38:02;14.45;;;2.50;;
33840;SDS011;20142;28.494;-16.312;2023-09-19T06:43:05;13.57;;;2.40;;
33840;SDS011;20142;28.494;-16.312;2023-09-19T06:48:07;20.42;;;2.65;;
33840;SDS011;20142;28.494;-16.312;2023-09-19T06:53:10;19.13;;;2.95;;
33840;SDS011;20142;28.494;-16.312;2023-09-19T06:58:12;15.27;;;3.03;;
33840;SDS011;20142;28.494;-16.312;2023-09-19T07:03:13;11.32;;;2.30;;
33840;SDS011;20142;28.494;-16.312;2023-09-19T07:08:16;13.55;;;2.45;;
33840;SDS011;20142;28.494;-16.312;2023-09-19T07:13:20;10.93;;;2.05;;
33840;SDS011;20142;28.494;-16.312;2023-09-19T07:18:22;16.00;;;2.58;;
33840;SDS011;20142;28.494;-16.312;2023-09-19T07:23:23;10.70;;;2.08;;
33840;SDS011;20142;28.494;-16.312;2023-09-19T07:28:26;10.98;;;2.08;;
33840;SDS011;20142;28.494;-16.312;2023-09-19T07:33:29;10.65;;;2.38;;
33840;SDS011;20142;28.494;-16.312;2023-09-19T07:38:30;11.80;;;2.58;;
33840;SDS011;20142;28.494;-16.312;2023-09-19T07:43:33;15.80;;;2.67;;
33840;SDS011;20142;28.494;-16.312;2023-09-19T07:48:40;10.90;;;2.63;;
33840;SDS011;20142;28.494;-16.312;2023-09-19T07:53:48;12.05;;;2.33;;
33840;SDS011;20142;28.494;-16.312;2023-09-19T07:58:50;8.13;;;2.10;;
33840;SDS011;20142;28.494;-16.312;2023-09-19T08:03:52;11.18;;;2.10;;
33840;SDS011;20142;28.494;-16.312;2023-09-19T08:08:54;12.48;;;2.00;;
33840;SDS011;20142;28.494;-16.312;2023-09-19T08:13:57;12.90;;;2.40;;
33840;SDS011;20142;28.494;-16.312;2023-09-19T08:18:59;17.15;;;2.63;;
33840;SDS011;20142;28.494;-16.312;2023-09-19T08:24:01;14.27;;;2.70;;
33840;SDS011;20142;28.494;-16.312;2023-09-19T08:29:04;6.50;;;2.38;;
33840;SDS011;20142;28.494;-16.312;2023-09-19T08:34:13;15.65;;;2.83;;
33840;SDS011;20142;28.494;-16.312;2023-09-19T08:39:15;11.45;;;2.40;;
33840;SDS011;20142;28.494;-16.312;2023-09-19T08:44:17;12.07;;;2.42;;
33840;SDS011;20142;28.494;-16.312;2023-09-19T08:49:23;13.90;;;2.42;;
33840;SDS011;20142;28.494;-16.312;2023-09-19T08:54:37;13.38;;;2.53;;
33840;SDS011;20142;28.494;-16.312;2023-09-19T08:59:41;12.23;;;2.65;;
33840;SDS011;20142;28.494;-16.312;2023-09-19T09:04:45;12.18;;;2.53;;
33840;SDS011;20142;28.494;-16.312;2023-09-19T09:09:48;7.80;;;2.22;;
33840;SDS011;20142;28.494;-16.312;2023-09-19T09:14:49;10.95;;;2.88;;
33840;SDS011;20142;28.494;-16.312;2023-09-19T09:19:53;15.38;;;2.50;;
33840;SDS011;20142;28.494;-16.312;2023-09-19T09:24:56;11.43;;;2.83;;
33840;SDS011;20142;28.494;-16.312;2023-09-19T09:30:05;10.02;;;2.10;;
33840;SDS011;20142;28.494;-16.312;2023-09-19T09:35:09;8.55;;;2.33;;
33840;SDS011;20142;28.494;-16.312;2023-09-19T09:40:11;12.50;;;3.03;;
33840;SDS011;20142;28.494;-16.312;2023-09-19T09:45:17;8.32;;;2.20;;
33840;SDS011;20142;28.494;-16.312;2023-09-19T09:50:30;10.60;;;1.92;;
33840;SDS011;20142;28.494;-16.312;2023-09-19T09:55:57;8.20;;;2.53;;
33840;SDS011;20142;28.494;-16.312;2023-09-19T10:01:06;6.53;;;2.40;;
33840;SDS011;20142;28.494;-16.312;2023-09-19T10:06:12;10.90;;;2.00;;
33840;SDS011;20142;28.494;-16.312;2023-09-19T10:11:24;10.73;;;2.83;;
33840;SDS011;20142;28.494;-16.312;2023-09-19T10:16:31;8.85;;;2.20;;
33840;SDS011;20142;28.494;-16.312;2023-09-19T10:21:33;11.32;;;2.67;;
33840;SDS011;20142;28.494;-16.312;2023-09-19T10:26:37;13.43;;;2.05;;
33840;SDS011;20142;28.494;-16.312;2023-09-19T10:31:39;11.45;;;2.55;;
33840;SDS011;20142;28.494;-16.312;2023-09-19T10:36:48;15.13;;;2.43;;
33840;SDS011;20142;28.494;-16.312;2023-09-19T10:41:53;10.10;;;2.83;;
33840;SDS011;20142;28.494;-16.312;2023-09-19T10:46:59;11.35;;;2.80;;
33840;SDS011;20142;28.494;-16.312;2023-09-19T10:52:01;9.90;;;2.60;;
33840;SDS011;20142;28.494;-16.312;2023-09-19T10:57:08;9.45;;;2.20;;
33840;SDS011;20142;28.494;-16.312;2023-09-19T11:02:17;8.52;;;2.08;;
33840;SDS011;20142;28.494;-16.312;2023-09-19T11:07:19;10.63;;;2.30;;
33840;SDS011;20142;28.494;-16.312;2023-09-19T11:17:33;10.10;;;2.00;;
33840;SDS011;20142;28.494;-16.312;2023-09-19T11:33:16;13.15;;;2.38;;
33840;SDS011;20142;28.494;-16.312;2023-09-19T11:43:45;7.68;;;2.58;;
33840;SDS011;20142;28.494;-16.312;2023-09-19T11:48:51;7.85;;;2.22;;
33840;SDS011;20142;28.494;-16.312;2023-09-19T11:53:54;10.40;;;2.80;;
33840;SDS011;20142;28.494;-16.312;2023-09-19T11:59:00;10.45;;;2.33;;
33840;SDS011;20142;28.494;-16.312;2023-09-19T12:04:02;8.90;;;1.88;;
33840;SDS011;20142;28.494;-16.312;2023-09-19T12:09:05;9.45;;;2.45;;
33840;SDS011;20142;28.494;-16.312;2023-09-19T12:14:11;10.30;;;2.33;;
33840;SDS011;20142;28.494;-16.312;2023-09-19T12:19:23;9.57;;;2.15;;
33840;SDS011;20142;28.494;-16.312;2023-09-19T12:24:26;8.23;;;1.77;;
33840;SDS011;20142;28.494;-16.312;2023-09-19T12:29:30;8.68;;;2.20;;
33840;SDS011;20142;28.494;-16.312;2023-09-19T12:34:56;9.50;;;1.77;;
33840;SDS011;20142;28.494;-16.312;2023-09-19T12:40:06;14.75;;;2.33;;
33840;SDS011;20142;28.494;-16.312;2023-09-19T12:45:18;6.05;;;1.80;;
33840;SDS011;20142;28.494;-16.312;2023-09-19T12:50:20;5.95;;;1.80;;
33840;SDS011;20142;28.494;-16.312;2023-09-19T12:55:30;6.28;;;2.00;;
33840;SDS011;20142;28.494;-16.312;2023-09-19T13:00:37;9.02;;;2.03;;
33840;SDS011;20142;28.494;-16.312;2023-09-19T13:05:48;7.85;;;2.22;;
33840;SDS011;20142;28.494;-16.312;2023-09-19T13:11:13;10.30;;;2.35;;
33840;SDS011;20142;28.494;-16.312;2023-09-19T13:16:21;8.48;;;1.95;;
33840;SDS011;20142;28.494;-16.312;2023-09-19T13:21:34;6.65;;;1.60;;
33840;SDS011;20142;28.494;-16.312;2023-09-19T13:26:46;6.28;;;1.95;;
33840;SDS011;20142;28.494;-16.312;2023-09-19T13:31:51;5.25;;;1.88;;
33840;SDS011;20142;28.494;-16.312;2023-09-19T13:36:53;6.80;;;1.88;;
33840;SDS011;20142;28.494;-16.312;2023-09-19T13:41:55;9.02;;;1.52;;
33840;SDS011;20142;28.494;-16.312;2023-09-19T13:46:57;9.75;;;2.10;;
33840;SDS011;20142;28.494;-16.312;2023-09-19T13:51:59;8.95;;;2.20;;
33840;SDS011;20142;28.494;-16.312;2023-09-19T13:57:02;9.32;;;1.90;;
33840;SDS011;20142;28.494;-16.312;2023-09-19T14:02:05;6.30;;;1.73;;
33840;SDS011;20142;28.494;-16.312;2023-09-19T14:07:07;6.22;;;1.70;;
33840;SDS011;20142;28.494;-16.312;2023-09-19T14:12:11;7.32;;;2.00;;
33840;SDS011;20142;28.494;-16.312;2023-09-19T14:17:14;5.75;;;1.73;;
33840;SDS011;20142;28.494;-16.312;2023-09-19T14:22:16;5.70;;;1.55;;
33840;SDS011;20142;28.494;-16.312;2023-09-19T14:27:17;4.25;;;1.60;;
33840;SDS011;20142;28.494;-16.312;2023-09-19T14:32:19;8.27;;;1.55;;
33840;SDS011;20142;28.494;-16.312;2023-09-19T14:37:21;8.82;;;2.35;;
33840;SDS011;20142;28.494;-16.312;2023-09-19T14:42:23;7.82;;;1.92;;
33840;SDS011;20142;28.494;-16.312;2023-09-19T14:47:24;5.18;;;1.58;;
33840;SDS011;20142;28.494;-16.312;2023-09-19T14:52:28;8.13;;;1.83;;
33840;SDS011;20142;28.494;-16.312;2023-09-19T14:57:30;9.02;;;2.20;;
33840;SDS011;20142;28.494;-16.312;2023-09-19T15:02:31;5.55;;;1.83;;
33840;SDS011;20142;28.494;-16.312;2023-09-19T15:07:37;8.10;;;1.35;;
33840;SDS011;20142;28.494;-16.312;2023-09-19T15:12:39;6.32;;;1.60;;
33840;SDS011;20142;28.494;-16.312;2023-09-19T15:17:41;6.65;;;1.92;;
33840;SDS011;20142;28.494;-16.312;2023-09-19T15:22:43;5.20;;;1.42;;
33840;SDS011;20142;28.494;-16.312;2023-09-19T15:27:44;4.22;;;1.40;;
33840;SDS011;20142;28.494;-16.312;2023-09-19T15:32:46;4.30;;;1.83;;
33840;SDS011;20142;28.494;-16.312;2023-09-19T15:37:49;4.72;;;1.40;;
33840;SDS011;20142;28.494;-16.312;2023-09-19T15:42:56;7.70;;;1.85;;
33840;SDS011;20142;28.494;-16.312;2023-09-19T15:47:58;4.90;;;1.50;;
33840;SDS011;20142;28.494;-16.312;2023-09-19T15:53:00;5.15;;;1.45;;
33840;SDS011;20142;28.494;-16.312;2023-09-19T15:58:01;5.47;;;1.63;;
33840;SDS011;20142;28.494;-16.312;2023-09-19T16:03:06;5.35;;;1.70;;
33840;SDS011;20142;28.494;-16.312;2023-09-19T16:08:08;4.10;;;1.50;;
33840;SDS011;20142;28.494;-16.312;2023-09-19T16:13:10;5.07;;;1.48;;
33840;SDS011;20142;28.494;-16.312;2023-09-19T16:18:13;6.50;;;1.73;;
33840;SDS011;20142;28.494;-16.312;2023-09-19T16:23:14;5.35;;;1.50;;
33840;SDS011;20142;28.494;-16.312;2023-09-19T16:28:16;6.43;;;1.50;;
33840;SDS011;20142;28.494;-16.312;2023-09-19T16:33:18;4.68;;;1.50;;
33840;SDS011;20142;28.494;-16.312;2023-09-19T16:38:20;4.57;;;1.25;;
33840;SDS011;20142;28.494;-16.312;2023-09-19T16:43:24;8.13;;;1.60;;
33840;SDS011;20142;28.494;-16.312;2023-09-19T16:48:27;6.80;;;1.67;;
33840;SDS011;20142;28.494;-16.312;2023-09-19T16:53:32;8.60;;;1.63;;
33840;SDS011;20142;28.494;-16.312;2023-09-19T16:58:35;6.63;;;1.65;;
33840;SDS011;20142;28.494;-16.312;2023-09-19T17:03:39;4.25;;;1.40;;
33840;SDS011;20142;28.494;-16.312;2023-09-19T17:08:42;5.75;;;1.50;;
33840;SDS011;20142;28.494;-16.312;2023-09-19T17:13:47;5.97;;;1.48;;
33840;SDS011;20142;28.494;-16.312;2023-09-19T17:18:53;7.40;;;1.73;;
33840;SDS011;20142;28.494;-16.312;2023-09-19T17:23:57;15.05;;;2.40;;
33840;SDS011;20142;28.494;-16.312;2023-09-19T17:28:59;9.70;;;1.88;;
33840;SDS011;20142;28.494;-16.312;2023-09-19T17:34:01;4.88;;;1.38;;
33840;SDS011;20142;28.494;-16.312;2023-09-19T17:39:02;6.53;;;1.70;;
33840;SDS011;20142;28.494;-16.312;2023-09-19T17:44:05;8.48;;;1.80;;
33840;SDS011;20142;28.494;-16.312;2023-09-19T17:49:07;3.72;;;1.27;;
33840;SDS011;20142;28.494;-16.312;2023-09-19T17:54:08;5.38;;;1.35;;
33840;SDS011;20142;28.494;-16.312;2023-09-19T17:59:11;6.18;;;1.58;;
33840;SDS011;20142;28.494;-16.312;2023-09-19T18:04:14;5.78;;;1.80;;
33840;SDS011;20142;28.494;-16.312;2023-09-19T18:09:16;5.07;;;1.70;;
33840;SDS011;20142;28.494;-16.312;2023-09-19T18:14:19;3.08;;;1.20;;
33840;SDS011;20142;28.494;-16.312;2023-09-19T18:19:20;9.07;;;2.10;;
33840;SDS011;20142;28.494;-16.312;2023-09-19T18:24:23;7.95;;;1.95;;
33840;SDS011;20142;28.494;-16.312;2023-09-19T18:29:25;5.13;;;1.58;;
33840;SDS011;20142;28.494;-16.312;2023-09-19T18:34:27;7.75;;;2.05;;
33840;SDS011;20142;28.494;-16.312;2023-09-19T18:39:28;9.75;;;2.10;;
33840;SDS011;20142;28.494;-16.312;2023-09-19T18:44:30;6.03;;;1.90;;
33840;SDS011;20142;28.494;-16.312;2023-09-19T18:49:32;6.22;;;2.00;;
33840;SDS011;20142;28.494;-16.312;2023-09-19T18:54:35;8.48;;;1.50;;
33840;SDS011;20142;28.494;-16.312;2023-09-19T18:59:37;7.53;;;1.83;;
33840;SDS011;20142;28.494;-16.312;2023-09-19T19:04:39;9.13;;;1.70;;
33840;SDS011;20142;28.494;-16.312;2023-09-19T19:09:41;11.73;;;2.20;;
33840;SDS011;20142;28.494;-16.312;2023-09-19T19:14:44;6.07;;;1.50;;
33840;SDS011;20142;28.494;-16.312;2023-09-19T19:19:46;8.77;;;1.73;;
33840;SDS011;20142;28.494;-16.312;2023-09-19T19:24:50;9.77;;;1.85;;
33840;SDS011;20142;28.494;-16.312;2023-09-19T19:29:52;8.73;;;1.60;;
33840;SDS011;20142;28.494;-16.312;2023-09-19T19:34:54;8.32;;;1.75;;
33840;SDS011;20142;28.494;-16.312;2023-09-19T19:39:56;7.15;;;1.67;;
33840;SDS011;20142;28.494;-16.312;2023-09-19T19:44:58;5.80;;;1.65;;
33840;SDS011;20142;28.494;-16.312;2023-09-19T19:50:00;9.32;;;1.52;;
33840;SDS011;20142;28.494;-16.312;2023-09-19T19:55:02;8.15;;;1.50;;
33840;SDS011;20142;28.494;-16.312;2023-09-19T20:00:04;6.07;;;1.80;;
33840;SDS011;20142;28.494;-16.312;2023-09-19T20:05:07;5.90;;;1.45;;
33840;SDS011;20142;28.494;-16.312;2023-09-19T20:10:12;5.40;;;1.55;;
33840;SDS011;20142;28.494;-16.312;2023-09-19T20:15:16;6.28;;;1.77;;
33840;SDS011;20142;28.494;-16.312;2023-09-19T20:20:18;13.13;;;2.20;;
33840;SDS011;20142;28.494;-16.312;2023-09-19T20:25:22;8.45;;;2.05;;
33840;SDS011;20142;28.494;-16.312;2023-09-19T20:30:28;6.07;;;1.80;;
33840;SDS011;20142;28.494;-16.312;2023-09-19T20:35:34;6.72;;;1.73;;
33840;SDS011;20142;28.494;-16.312;2023-09-19T20:40:40;10.75;;;1.95;;
33840;SDS011;20142;28.494;-16.312;2023-09-19T20:45:43;7.40;;;1.90;;
33840;SDS011;20142;28.494;-16.312;2023-09-19T20:50:46;9.85;;;2.10;;
33840;SDS011;20142;28.494;-16.312;2023-09-19T20:55:47;12.25;;;1.77;;
33840;SDS011;20142;28.494;-16.312;2023-09-19T21:00:50;11.57;;;2.08;;
33840;SDS011;20142;28.494;-16.312;2023-09-19T21:05:59;9.57;;;2.10;;
33840;SDS011;20142;28.494;-16.312;2023-09-19T21:11:09;8.68;;;2.05;;
33840;SDS011;20142;28.494;-16.312;2023-09-19T21:16:19;5.43;;;1.50;;
33840;SDS011;20142;28.494;-16.312;2023-09-19T21:21:22;7.15;;;1.75;;
33840;SDS011;20142;28.494;-16.312;2023-09-19T21:26:23;7.53;;;1.65;;
33840;SDS011;20142;28.494;-16.312;2023-09-19T21:31:25;9.65;;;2.10;;
33840;SDS011;20142;28.494;-16.312;2023-09-19T21:36:27;9.30;;;2.25;;
33840;SDS011;20142;28.494;-16.312;2023-09-19T21:41:33;8.65;;;1.98;;
33840;SDS011;20142;28.494;-16.312;2023-09-19T21:46:37;11.15;;;2.50;;
33840;SDS011;20142;28.494;-16.312;2023-09-19T21:51:40;6.65;;;1.70;;
33840;SDS011;20142;28.494;-16.312;2023-09-19T21:56:41;9.57;;;1.85;;
33840;SDS011;20142;28.494;-16.312;2023-09-19T22:01:43;9.20;;;1.90;;
33840;SDS011;20142;28.494;-16.312;2023-09-19T22:06:45;11.25;;;1.80;;
33840;SDS011;20142;28.494;-16.312;2023-09-19T22:11:47;10.52;;;2.22;;
33840;SDS011;20142;28.494;-16.312;2023-09-19T22:16:52;12.77;;;2.25;;
33840;SDS011;20142;28.494;-16.312;2023-09-19T22:21:53;10.18;;;1.80;;
33840;SDS011;20142;28.494;-16.312;2023-09-19T22:26:55;10.32;;;1.90;;
33840;SDS011;20142;28.494;-16.312;2023-09-19T22:31:57;8.50;;;1.83;;
33840;SDS011;20142;28.494;-16.312;2023-09-19T22:36:59;7.63;;;1.65;;
33840;SDS011;20142;28.494;-16.312;2023-09-19T22:42:01;8.73;;;1.60;;
33840;SDS011;20142;28.494;-16.312;2023-09-19T22:47:12;9.55;;;1.98;;
33840;SDS011;20142;28.494;-16.312;2023-09-19T22:52:13;5.72;;;1.25;;
33840;SDS011;20142;28.494;-16.312;2023-09-19T22:57:17;8.43;;;1.40;;
33840;SDS011;20142;28.494;-16.312;2023-09-19T23:02:19;8.57;;;1.40;;
33840;SDS011;20142;28.494;-16.312;2023-09-19T23:07:22;4.90;;;1.75;;
33840;SDS011;20142;28.494;-16.312;2023-09-19T23:12:26;7.82;;;1.30;;
33840;SDS011;20142;28.494;-16.312;2023-09-19T23:17:28;5.78;;;1.40;;
33840;SDS011;20142;28.494;-16.312;2023-09-19T23:22:31;7.05;;;1.27;;
33840;SDS011;20142;28.494;-16.312;2023-09-19T23:27:36;5.60;;;1.58;;
33840;SDS011;20142;28.494;-16.312;2023-09-19T23:32:38;8.38;;;1.45;;
33840;SDS011;20142;28.494;-16.312;2023-09-19T23:37:40;9.30;;;1.60;;
33840;SDS011;20142;28.494;-16.312;2023-09-19T23:42:41;5.43;;;1.50;;
33840;SDS011;20142;28.494;-16.312;2023-09-19T23:47:43;8.23;;;1.20;;
33840;SDS011;20142;28.494;-16.312;2023-09-19T23:52:46;6.88;;;1.33;;
33840;SDS011;20142;28.494;-16.312;2023-09-19T23:57:48;7.88;;;1.20;;
